Time;durP1;ratioP1;P1;durP2;ratioP2;P2;SDS_P1;SDS_P2;PMS_P1;PMS_P2;Temp;Humidity;BMP_temperature;BMP_pressure;BME280_temperature;BME280_humidity;BME280_pressure;Samples;Min_cycle;Max_cycle;Signal;HPM_P1;HPM_P2
2023/08/13 00:02:00;;;;;;;;;;;24.60;49.20;;;;;;5094244;28;19982;-56
2023/08/13 00:04:27;;;;;;;;;;;24.60;49.20;;;;;;5093932;28;19979;-54
2023/08/13 00:06:55;;;;;;;;;;;24.60;49.20;;;;;;5094221;28;19977;-56
2023/08/13 00:09:23;;;;;;;;;;;24.60;49.20;;;;;;5094213;28;19931;-57
2023/08/13 00:11:50;;;;;;;;;;;24.60;49.20;;;;;;5094121;28;19928;-53
2023/08/13 00:14:17;;;;;;;;;;;24.60;49.20;;;;;;5094518;28;19928;-56
2023/08/13 00:16:44;;;;;;;;;;;24.60;49.20;;;;;;5094218;28;20326;-56
2023/08/13 00:19:12;;;;;;;;;;;24.50;49.20;;;;;;5094584;28;19924;-56
2023/08/13 00:21:39;;;;;;;;;;;24.50;49.30;;;;;;5093961;28;19932;-56
2023/08/13 00:24:17;;;;;;;;;;;24.50;49.30;;;;;;5094396;28;19924;-56
2023/08/13 00:26:44;;;;;;;;;;;24.50;49.40;;;;;;5094016;28;20509;-56
2023/08/13 00:29:11;;;;;;;;;;;24.50;49.40;;;;;;5093955;28;19924;-55
2023/08/13 00:31:38;;;;;;;;;;;24.50;49.40;;;;;;5094187;28;19970;-56
2023/08/13 00:34:05;;;;;;;;;;;24.50;49.40;;;;;;5093946;28;19928;-56
2023/08/13 00:36:32;;;;;;;;;;;24.50;49.40;;;;;;5093599;28;20018;-56
2023/08/13 00:38:59;;;;;;;;;;;24.50;49.40;;;;;;5093958;28;19928;-56
2023/08/13 00:41:26;;;;;;;;;;;24.50;49.40;;;;;;5094113;28;19928;-55
2023/08/13 00:43:53;;;;;;;;;;;24.50;49.40;;;;;;5093985;28;19969;-56
2023/08/13 00:46:20;;;;;;;;;;;24.50;49.50;;;;;;5094057;28;19928;-56
2023/08/13 00:48:48;;;;;;;;;;;24.50;49.50;;;;;;5093635;28;20351;-56
2023/08/13 00:51:16;;;;;;;;;;;24.50;49.50;;;;;;5093766;28;19936;-58
2023/08/13 00:53:46;;;;;;;;;;;24.50;49.50;;;;;;5094023;28;20330;-54
2023/08/13 00:56:14;;;;;;;;;;;24.40;49.50;;;;;;5092454;28;19931;-56
2023/08/13 00:58:42;;;;;;;;;;;24.40;49.50;;;;;;5093511;28;20015;-56
2023/08/13 01:01:09;;;;;;;;;;;24.40;49.50;;;;;;5093646;28;19924;-55
2023/08/13 01:03:40;;;;;;;;;;;24.40;49.50;;;;;;5093690;28;19963;-57
2023/08/13 01:06:25;;;;;;;;;;;24.40;49.60;;;;;;5093809;28;19924;-56
2023/08/13 01:09:05;;;;;;;;;;;24.40;49.60;;;;;;5093589;28;19962;-56
2023/08/13 01:11:39;;;;;;;;;;;24.40;49.60;;;;;;5093183;28;19924;-56
2023/08/13 01:14:13;;;;;;;;;;;24.40;49.60;;;;;;5093828;28;20278;-56
2023/08/13 01:16:42;;;;;;;;;;;24.40;49.60;;;;;;5095839;28;19990;-55
2023/08/13 01:19:12;;;;;;;;;;;24.40;49.60;;;;;;5097724;28;19924;-56
2023/08/13 01:21:39;;;;;;;;;;;24.40;49.60;;;;;;5097798;28;19963;-56
2023/08/13 01:24:07;;;;;;;;;;;24.40;49.60;;;;;;5096520;28;19924;-56
2023/08/13 01:26:40;;;;;;;;;;;24.40;49.70;;;;;;5097311;28;19959;-56
2023/08/13 01:29:09;;;;;;;;;;;24.40;49.70;;;;;;5097581;28;19955;-54
2023/08/13 01:31:38;;;;;;;;;;;24.40;49.70;;;;;;5096897;28;19978;-56
2023/08/13 01:34:05;;;;;;;;;;;24.40;49.70;;;;;;5097209;28;19938;-56
2023/08/13 01:36:33;;;;;;;;;;;24.40;49.70;;;;;;5097242;28;19931;-54
2023/08/13 01:39:01;;;;;;;;;;;24.40;49.70;;;;;;5097364;28;19932;-56
2023/08/13 01:41:35;;;;;;;;;;;24.40;49.70;;;;;;5097454;28;19947;-56
2023/08/13 01:44:02;;;;;;;;;;;24.40;49.70;;;;;;5097041;28;19924;-57
2023/08/13 01:46:29;;;;;;;;;;;24.40;49.70;;;;;;5097031;28;19928;-55
2023/08/13 01:48:56;;;;;;;;;;;24.40;49.70;;;;;;5095779;28;20027;-56
2023/08/13 01:51:23;;;;;;;;;;;24.40;49.70;;;;;;5096196;28;20360;-57
2023/08/13 01:53:50;;;;;;;;;;;24.40;49.70;;;;;;5097181;28;19932;-56
2023/08/13 01:56:17;;;;;;;;;;;24.40;49.70;;;;;;5096858;28;19924;-56
2023/08/13 01:58:44;;;;;;;;;;;24.40;49.70;;;;;;5096757;28;19969;-56
2023/08/13 02:01:11;;;;;;;;;;;24.40;49.70;;;;;;5096952;28;19924;-57
2023/08/13 02:03:38;;;;;;;;;;;24.40;49.70;;;;;;5096725;28;19924;-56
2023/08/13 02:06:05;;;;;;;;;;;24.40;49.70;;;;;;5097053;28;20336;-57
2023/08/13 02:08:32;;;;;;;;;;;24.40;49.70;;;;;;5096265;28;19924;-57
2023/08/13 02:10:59;;;;;;;;;;;24.40;49.70;;;;;;5094953;28;19927;-56
2023/08/13 02:13:26;;;;;;;;;;;24.40;49.70;;;;;;5095681;28;19924;-56
2023/08/13 02:15:53;;;;;;;;;;;24.40;49.70;;;;;;5095503;28;19931;-57
2023/08/13 02:18:21;;;;;;;;;;;24.40;49.70;;;;;;5095041;28;20007;-56
2023/08/13 02:20:47;;;;;;;;;;;24.40;49.70;;;;;;5095314;28;19928;-56
2023/08/13 02:23:14;;;;;;;;;;;24.40;49.70;;;;;;5094968;28;19931;-56
2023/08/13 02:25:41;;;;;;;;;;;24.40;50.20;;;;;;5095211;28;20468;-54
2023/08/13 02:28:08;;;;;;;;;;;24.40;49.70;;;;;;5094588;28;20429;-57
2023/08/13 02:30:37;;;;;;;;;;;24.40;49.70;;;;;;5095371;28;19928;-55
2023/08/13 02:33:04;;;;;;;;;;;24.40;49.70;;;;;;5095122;28;19930;-57
2023/08/13 02:35:31;;;;;;;;;;;24.40;49.70;;;;;;5095428;28;19924;-56
2023/08/13 02:37:58;;;;;;;;;;;24.40;49.70;;;;;;5094717;28;20349;-57
2023/08/13 02:40:25;;;;;;;;;;;24.40;49.70;;;;;;5095099;28;20430;-56
2023/08/13 02:42:52;;;;;;;;;;;24.40;49.70;;;;;;5094974;28;20360;-57
2023/08/13 02:45:19;;;;;;;;;;;24.40;49.70;;;;;;5095322;28;20277;-56
2023/08/13 02:47:46;;;;;;;;;;;24.40;49.70;;;;;;5094836;28;19928;-57
2023/08/13 02:50:13;;;;;;;;;;;24.40;49.80;;;;;;5095037;28;19924;-57
2023/08/13 02:52:40;;;;;;;;;;;24.30;49.80;;;;;;5094676;28;20339;-56
2023/08/13 02:55:08;;;;;;;;;;;24.40;49.90;;;;;;5095138;28;19924;-56
2023/08/13 02:57:35;;;;;;;;;;;24.30;49.80;;;;;;5094754;28;19931;-58
2023/08/13 03:00:12;;;;;;;;;;;24.30;49.80;;;;;;5094925;28;19963;-55
2023/08/13 03:02:39;;;;;;;;;;;24.30;49.80;;;;;;5094859;28;19958;-56
2023/08/13 03:05:06;;;;;;;;;;;24.30;49.90;;;;;;5094571;28;20023;-56
2023/08/13 03:07:33;;;;;;;;;;;24.30;49.90;;;;;;5094371;28;19950;-56
2023/08/13 03:10:00;;;;;;;;;;;24.30;49.90;;;;;;5027063;28;1924905;-57
2023/08/13 03:12:27;;;;;;;;;;;24.30;49.90;;;;;;5095698;28;19924;-57
2023/08/13 03:14:54;;;;;;;;;;;24.30;49.90;;;;;;5095409;28;20258;-56
2023/08/13 03:17:22;;;;;;;;;;;24.30;49.90;;;;;;5095506;28;19928;-55
2023/08/13 03:19:49;;;;;;;;;;;24.30;50.00;;;;;;5095442;28;19924;-56
2023/08/13 03:22:15;;;;;;;;;;;24.30;50.50;;;;;;5095511;28;20334;-57
2023/08/13 03:24:42;;;;;;;;;;;24.30;50.00;;;;;;5095318;28;19923;-57
2023/08/13 03:27:09;;;;;;;;;;;24.30;50.00;;;;;;5095368;28;20257;-57
2023/08/13 03:29:37;;;;;;;;;;;24.30;50.00;;;;;;5094802;28;19924;-57
2023/08/13 03:32:04;;;;;;;;;;;24.30;50.00;;;;;;5095064;28;19937;-57
2023/08/13 03:34:31;;;;;;;;;;;24.30;50.00;;;;;;5095243;28;19927;-56
2023/08/13 03:36:58;;;;;;;;;;;24.30;50.00;;;;;;5094723;28;20026;-56
2023/08/13 03:39:25;;;;;;;;;;;24.30;50.00;;;;;;5094449;28;19931;-55
2023/08/13 03:41:52;;;;;;;;;;;24.30;50.00;;;;;;5095039;28;20337;-57
2023/08/13 03:44:19;;;;;;;;;;;24.30;50.00;;;;;;5094843;28;19924;-57
2023/08/13 03:46:46;;;;;;;;;;;24.30;50.00;;;;;;5094837;28;19928;-56
2023/08/13 03:49:13;;;;;;;;;;;24.30;50.00;;;;;;5094648;28;19974;-56
2023/08/13 03:51:40;;;;;;;;;;;24.30;50.00;;;;;;5094964;28;19924;-57
2023/08/13 03:54:08;;;;;;;;;;;24.30;50.00;;;;;;5095087;28;19924;-55
2023/08/13 03:56:36;;;;;;;;;;;24.30;50.00;;;;;;5094306;28;19969;-57
2023/08/13 03:59:03;;;;;;;;;;;24.30;50.50;;;;;;5094779;28;19924;-57
2023/08/13 04:01:30;;;;;;;;;;;24.30;50.00;;;;;;5094703;28;19930;-57
2023/08/13 04:03:57;;;;;;;;;;;24.30;50.00;;;;;;5094802;28;19970;-57
2023/08/13 04:06:25;;;;;;;;;;;24.30;50.00;;;;;;5093258;28;19931;-57
2023/08/13 04:08:52;;;;;;;;;;;24.30;49.90;;;;;;5094366;28;19928;-57
2023/08/13 04:11:19;;;;;;;;;;;24.30;50.00;;;;;;5094440;28;19930;-57
2023/08/13 04:13:46;;;;;;;;;;;24.30;49.90;;;;;;5094627;28;20347;-56
2023/08/13 04:16:13;;;;;;;;;;;24.30;49.90;;;;;;5094269;28;19969;-57
2023/08/13 04:18:40;;;;;;;;;;;24.30;49.80;;;;;;5093028;28;19924;-57
2023/08/13 04:21:07;;;;;;;;;;;24.30;49.80;;;;;;5094085;28;19931;-57
2023/08/13 04:23:34;;;;;;;;;;;24.30;49.80;;;;;;5093963;28;19977;-56
2023/08/13 04:26:01;;;;;;;;;;;24.40;50.30;;;;;;5094178;28;20345;-56
2023/08/13 04:28:28;;;;;;;;;;;24.40;49.80;;;;;;5094091;28;19924;-57
2023/08/13 04:30:55;;;;;;;;;;;24.40;49.80;;;;;;5092703;28;19931;-57
2023/08/13 04:33:22;;;;;;;;;;;24.40;49.70;;;;;;5094019;28;20031;-57
2023/08/13 04:35:53;;;;;;;;;;;24.40;49.60;;;;;;5093706;28;19977;-56
2023/08/13 04:38:21;;;;;;;;;;;24.40;49.70;;;;;;5093907;28;20359;-54
2023/08/13 04:40:48;;;;;;;;;;;24.30;49.70;;;;;;5093682;28;20022;-56
2023/08/13 04:43:15;;;;;;;;;;;24.20;49.80;;;;;;5093776;28;19977;-56
2023/08/13 04:45:48;;;;;;;;;;;24.10;50.10;;;;;;5093704;28;19928;-57
2023/08/13 04:48:35;;;;;;;;;;;23.90;50.40;;;;;;5093974;28;19924;-56
2023/08/13 04:51:02;;;;;;;;;;;23.60;50.90;;;;;;5093535;28;19947;-56
2023/08/13 04:53:29;;;;;;;;;;;23.30;50.50;;;;;;5093697;28;19924;-56
2023/08/13 04:55:56;;;;;;;;;;;23.00;49.30;;;;;;5093694;28;20019;-56
2023/08/13 04:58:23;;;;;;;;;;;22.70;48.40;;;;;;5093612;28;19928;-57
2023/08/13 05:00:50;;;;;;;;;;;22.40;47.80;;;;;;5093713;28;19924;-56
2023/08/13 05:03:17;;;;;;;;;;;22.10;47.50;;;;;;5092680;28;20018;-56
2023/08/13 05:05:44;;;;;;;;;;;21.80;47.80;;;;;;5093813;28;19928;-55
2023/08/13 05:08:12;;;;;;;;;;;21.50;46.90;;;;;;5093543;28;19924;-57
2023/08/13 05:10:39;;;;;;;;;;;21.20;47.70;;;;;;5093809;28;19959;-57
2023/08/13 05:13:06;;;;;;;;;;;20.90;48.90;;;;;;5093703;28;19924;-56
2023/08/13 05:15:33;;;;;;;;;;;20.70;49.00;;;;;;5093713;28;19982;-56
2023/08/13 05:18:01;;;;;;;;;;;20.50;48.40;;;;;;5093197;28;20280;-57
2023/08/13 05:20:28;;;;;;;;;;;20.20;50.20;;;;;;5093605;28;19924;-56
2023/08/13 05:22:55;;;;;;;;;;;20.10;50.10;;;;;;5093765;28;19971;-57
2023/08/13 05:25:22;;;;;;;;;;;19.90;48.90;;;;;;5093446;28;19928;-56
2023/08/13 05:27:49;;;;;;;;;;;19.70;50.10;;;;;;5093189;28;20342;-56
2023/08/13 05:30:16;;;;;;;;;;;19.60;51.10;;;;;;5092183;28;19981;-56
2023/08/13 05:32:43;;;;;;;;;;;19.40;50.40;;;;;;5093308;28;19982;-57
2023/08/13 05:35:10;;;;;;;;;;;19.30;50.40;;;;;;5093275;28;19924;-57
2023/08/13 05:37:37;;;;;;;;;;;19.20;52.30;;;;;;5093293;28;20327;-56
2023/08/13 05:40:04;;;;;;;;;;;19.10;51.40;;;;;;5093306;28;19924;-58
2023/08/13 05:42:31;;;;;;;;;;;19.00;51.00;;;;;;5093467;28;19954;-55
2023/08/13 05:44:58;;;;;;;;;;;18.90;51.90;;;;;;5093542;28;20338;-55
2023/08/13 05:47:25;;;;;;;;;;;18.80;52.60;;;;;;5093039;28;20015;-57
2023/08/13 05:49:52;;;;;;;;;;;18.80;51.50;;;;;;5093400;28;19970;-55
2023/08/13 05:52:19;;;;;;;;;;;18.70;51.60;;;;;;5093381;28;19969;-57
2023/08/13 05:54:47;;;;;;;;;;;18.70;53.10;;;;;;5092734;28;19928;-57
2023/08/13 05:57:14;;;;;;;;;;;18.60;52.70;;;;;;5092715;28;20396;-57
2023/08/13 05:59:41;;;;;;;;;;;18.60;52.10;;;;;;5091987;28;20339;-57
2023/08/13 06:02:08;;;;;;;;;;;18.50;53.50;;;;;;5093979;28;19959;-58
2023/08/13 06:04:35;;;;;;;;;;;18.50;53.60;;;;;;5096806;28;19970;-55
2023/08/13 06:07:06;;;;;;;;;;;18.50;53.60;;;;;;5096770;28;19931;-57
2023/08/13 06:09:33;;;;;;;;;;;18.40;53.10;;;;;;5096489;28;19935;-55
2023/08/13 06:12:00;;;;;;;;;;;18.40;54.10;;;;;;5096426;28;19931;-56
2023/08/13 06:14:27;;;;;;;;;;;18.50;53.30;;;;;;5096969;28;19924;-57
2023/08/13 06:16:55;;;;;;;;;;;18.40;53.00;;;;;;5096224;28;20377;-56
2023/08/13 06:19:38;;;;;;;;;;;18.40;54.10;;;;;;5096581;28;19924;-57
2023/08/13 06:22:07;;;;;;;;;;;18.40;54.30;;;;;;5096234;28;19928;-56
2023/08/13 06:24:34;;;;;;;;;;;18.40;53.70;;;;;;5096180;28;19974;-56
2023/08/13 06:27:01;;;;;;;;;;;18.40;54.20;;;;;;5096177;28;19964;-56
2023/08/13 06:29:28;;;;;;;;;;;18.40;54.50;;;;;;5096069;28;19924;-57
2023/08/13 06:31:55;;;;;;;;;;;18.40;53.80;;;;;;5096276;28;20002;-57
2023/08/13 06:34:22;;;;;;;;;;;18.40;53.90;;;;;;5096473;28;19932;-57
2023/08/13 06:36:49;;;;;;;;;;;18.40;54.70;;;;;;5095070;28;19924;-57
2023/08/13 06:39:16;;;;;;;;;;;18.40;54.00;;;;;;5096034;28;20022;-57
2023/08/13 06:41:43;;;;;;;;;;;18.40;53.90;;;;;;5095704;28;19967;-56
2023/08/13 06:44:20;;;;;;;;;;;18.40;54.80;;;;;;5096014;28;20388;-57
2023/08/13 06:46:47;;;;;;;;;;;18.50;54.80;;;;;;5096081;28;20380;-56
2023/08/13 06:49:15;;;;;;;;;;;18.40;54.60;;;;;;5095804;28;19959;-57
2023/08/13 06:51:42;;;;;;;;;;;18.40;54.10;;;;;;5095558;28;20430;-56
2023/08/13 06:54:09;;;;;;;;;;;18.40;54.30;;;;;;5095814;28;19924;-56
2023/08/13 06:56:37;;;;;;;;;;;18.50;54.70;;;;;;5094915;28;20342;-56
2023/08/13 06:59:03;;;;;;;;;;;18.40;54.90;;;;;;5095858;28;20330;-56
2023/08/13 07:01:31;;;;;;;;;;;18.50;54.70;;;;;;5095777;28;19924;-56
2023/08/13 07:03:59;;;;;;;;;;;18.50;54.60;;;;;;5095691;28;19924;-54
2023/08/13 07:06:26;;;;;;;;;;;18.50;54.50;;;;;;5095562;28;19925;-56
2023/08/13 07:08:53;;;;;;;;;;;18.50;54.30;;;;;;5095433;28;19969;-57
2023/08/13 07:11:20;;;;;;;;;;;18.50;54.80;;;;;;5095152;28;20341;-57
2023/08/13 07:13:48;;;;;;;;;;;18.40;54.20;;;;;;5094308;28;19924;-57
2023/08/13 07:16:16;;;;;;;;;;;18.40;54.60;;;;;;5095265;28;19931;-58
2023/08/13 07:18:44;;;;;;;;;;;18.40;54.40;;;;;;5095283;28;20380;-57
2023/08/13 07:21:11;;;;;;;;;;;18.40;55.00;;;;;;5095278;28;19924;-59
2023/08/13 07:23:38;;;;;;;;;;;18.40;55.70;;;;;;5095093;28;19949;-57
2023/08/13 07:26:05;;;;;;;;;;;18.40;54.60;;;;;;5095556;28;19924;-57
2023/08/13 07:28:34;;;;;;;;;;;18.40;55.20;;;;;;5095170;28;19924;-56
2023/08/13 07:31:05;;;;;;;;;;;18.40;55.90;;;;;;5095027;28;19931;-56
2023/08/13 07:33:32;;;;;;;;;;;18.40;54.70;;;;;;5095072;28;19925;-57
2023/08/13 07:36:00;;;;;;;;;;;18.40;54.90;;;;;;5094564;28;19969;-57
2023/08/13 07:38:27;;;;;;;;;;;18.40;54.70;;;;;;5095101;28;19931;-57
2023/08/13 07:40:58;;;;;;;;;;;18.40;57.80;;;;;;5094957;28;20035;-57
2023/08/13 07:43:25;;;;;;;;;;;18.40;58.30;;;;;;5095026;28;19924;-57
2023/08/13 07:45:53;;;;;;;;;;;18.40;58.60;;;;;;5094845;28;19927;-57
2023/08/13 07:48:20;;;;;;;;;;;18.30;58.50;;;;;;5095142;28;19961;-57
2023/08/13 07:50:48;;;;;;;;;;;18.30;59.50;;;;;;5094729;28;20384;-57
2023/08/13 07:53:15;;;;;;;;;;;18.30;59.50;;;;;;5094417;28;19931;-56
2023/08/13 07:55:43;;;;;;;;;;;18.30;59.90;;;;;;5095119;28;20010;-57
2023/08/13 07:58:10;;;;;;;;;;;18.20;59.80;;;;;;5094653;28;19924;-57
2023/08/13 08:00:37;;;;;;;;;;;18.30;60.10;;;;;;5094535;28;19931;-56
2023/08/13 08:03:08;;;;;;;;;;;18.30;60.20;;;;;;5094346;28;20019;-57
2023/08/13 08:05:35;;;;;;;;;;;18.30;60.20;;;;;;5094563;28;19924;-56
2023/08/13 08:08:03;;;;;;;;;;;18.30;60.40;;;;;;5094477;28;19924;-56
2023/08/13 08:10:31;;;;;;;;;;;18.40;60.20;;;;;;5094266;28;20373;-57
2023/08/13 08:12:58;;;;;;;;;;;18.40;60.20;;;;;;5094155;28;20018;-56
2023/08/13 08:15:26;;;;;;;;;;;18.40;60.00;;;;;;5093776;28;20335;-57
2023/08/13 08:17:53;;;;;;;;;;;18.40;60.20;;;;;;5094258;28;19975;-56
2023/08/13 08:20:20;;;;;;;;;;;18.50;59.90;;;;;;5094663;28;19928;-56
2023/08/13 08:22:47;;;;;;;;;;;18.60;60.40;;;;;;5093589;28;19942;-56
2023/08/13 08:25:13;;;;;;;;;;;18.60;59.90;;;;;;5093844;28;19934;-57
2023/08/13 08:27:41;;;;;;;;;;;18.60;59.90;;;;;;5094347;28;19924;-57
2023/08/13 08:30:08;;;;;;;;;;;18.70;59.80;;;;;;5093916;28;19972;-56
2023/08/13 08:32:35;;;;;;;;;;;18.70;60.20;;;;;;5094239;28;19925;-56
2023/08/13 08:35:03;;;;;;;;;;;18.80;60.30;;;;;;5093786;28;20024;-57
2023/08/13 08:37:32;;;;;;;;;;;18.80;60.30;;;;;;5093354;28;19924;-57
2023/08/13 08:39:59;;;;;;;;;;;18.80;59.70;;;;;;5094007;28;19924;-57
2023/08/13 08:42:27;;;;;;;;;;;18.90;60.50;;;;;;5093581;28;19932;-57
2023/08/13 08:44:54;;;;;;;;;;;18.90;60.10;;;;;;5094023;28;19978;-57
2023/08/13 08:47:22;;;;;;;;;;;18.90;59.80;;;;;;5093640;28;20376;-57
2023/08/13 08:49:50;;;;;;;;;;;18.90;60.10;;;;;;5093691;28;19931;-57
2023/08/13 08:52:17;;;;;;;;;;;18.90;60.30;;;;;;5093848;28;19924;-56
2023/08/13 08:54:45;;;;;;;;;;;19.00;59.80;;;;;;5093939;28;19928;-57
2023/08/13 08:57:12;;;;;;;;;;;19.10;60.10;;;;;;5093438;28;20399;-57
2023/08/13 08:59:39;;;;;;;;;;;19.10;58.90;;;;;;5094013;28;19924;-57
2023/08/13 09:02:06;;;;;;;;;;;19.10;60.10;;;;;;5093807;28;19924;-58
2023/08/13 09:04:34;;;;;;;;;;;19.10;59.20;;;;;;5093483;28;19924;-57
2023/08/13 09:07:03;;;;;;;;;;;19.20;59.90;;;;;;5093726;28;20030;-57
2023/08/13 09:09:30;;;;;;;;;;;19.20;59.30;;;;;;5093156;28;20018;-57
2023/08/13 09:11:58;;;;;;;;;;;19.30;59.40;;;;;;5093373;28;20299;-57
2023/08/13 09:14:28;;;;;;;;;;;19.30;60.00;;;;;;5093041;28;19932;-55
2023/08/13 09:16:56;;;;;;;;;;;19.30;59.10;;;;;;5093388;28;19969;-56
2023/08/13 09:19:24;;;;;;;;;;;19.30;60.00;;;;;;5093619;28;20019;-58
2023/08/13 09:21:52;;;;;;;;;;;19.30;59.50;;;;;;5092099;28;19924;-57
2023/08/13 09:24:30;;;;;;;;;;;19.40;59.00;;;;;;5093667;28;20391;-56
2023/08/13 09:26:57;;;;;;;;;;;19.40;59.20;;;;;;5093684;28;19924;-57
2023/08/13 09:29:24;;;;;;;;;;;19.40;59.50;;;;;;5093209;28;19924;-56
2023/08/13 09:31:51;;;;;;;;;;;19.50;59.40;;;;;;5093298;28;19978;-57
2023/08/13 09:34:20;;;;;;;;;;;19.50;59.00;;;;;;5093610;28;19924;-55
2023/08/13 09:36:51;;;;;;;;;;;19.50;58.50;;;;;;5094103;28;19924;-58
2023/08/13 09:39:18;;;;;;;;;;;19.50;59.00;;;;;;5096020;28;19924;-56
2023/08/13 09:41:47;;;;;;;;;;;19.50;58.60;;;;;;5097144;28;20052;-58
2023/08/13 09:44:14;;;;;;;;;;;19.60;59.20;;;;;;5097016;28;19924;-56
2023/08/13 09:46:43;;;;;;;;;;;19.60;58.60;;;;;;5097152;28;19977;-59
2023/08/13 09:49:11;;;;;;;;;;;19.60;58.80;;;;;;5097100;28;19930;-58
2023/08/13 09:51:41;;;;;;;;;;;19.70;58.70;;;;;;5095647;28;19936;-57
2023/08/13 09:54:29;;;;;;;;;;;19.70;58.70;;;;;;5097020;28;20401;-57
2023/08/13 09:57:01;;;;;;;;;;;19.70;59.00;;;;;;5096093;28;20008;-57
2023/08/13 09:59:28;;;;;;;;;;;19.80;59.00;;;;;;5096829;28;20370;-57
2023/08/13 10:01:56;;;;;;;;;;;19.80;58.50;;;;;;5096732;28;20404;-57
2023/08/13 10:04:23;;;;;;;;;;;19.80;58.10;;;;;;5096910;28;20266;-55
2023/08/13 10:06:51;;;;;;;;;;;19.80;58.00;;;;;;5096296;28;20419;-57
2023/08/13 10:09:18;;;;;;;;;;;19.80;58.30;;;;;;5096535;28;19931;-58
2023/08/13 10:11:45;;;;;;;;;;;19.80;58.20;;;;;;5096448;28;19928;-59
2023/08/13 10:14:12;;;;;;;;;;;19.80;57.70;;;;;;5096882;28;20347;-56
2023/08/13 10:16:39;;;;;;;;;;;19.80;57.60;;;;;;5096823;28;19924;-57
2023/08/13 10:19:08;;;;;;;;;;;19.70;57.70;;;;;;5096255;28;19924;-57
2023/08/13 10:21:35;;;;;;;;;;;19.70;58.20;;;;;;5096566;28;20434;-56
2023/08/13 10:24:03;;;;;;;;;;;19.70;57.70;;;;;;5096206;28;19931;-57
2023/08/13 10:26:30;;;;;;;;;;;19.70;57.60;;;;;;5096661;28;19969;-57
2023/08/13 10:28:57;;;;;;;;;;;19.70;57.40;;;;;;5096669;28;20273;-58
2023/08/13 10:31:32;;;;;;;;;;;19.60;57.50;;;;;;5096419;28;19963;-57
2023/08/13 10:34:06;;;;;;;;;;;19.60;57.50;;;;;;5096251;28;19946;-56
2023/08/13 10:36:50;;;;;;;;;;;19.60;57.60;;;;;;5096131;28;19970;-57
2023/08/13 10:39:36;;;;;;;;;;;19.50;57.40;;;;;;5096272;28;20013;-57
2023/08/13 10:42:24;;;;;;;;;;;19.50;57.50;;;;;;5096306;28;19939;-56
2023/08/13 10:44:52;;;;;;;;;;;19.40;57.60;;;;;;5095832;28;19924;-59
2023/08/13 10:47:19;;;;;;;;;;;19.40;57.10;;;;;;5094798;28;19924;-58
2023/08/13 10:49:46;;;;;;;;;;;19.40;58.00;;;;;;5096071;28;20274;-56
2023/08/13 10:52:13;;;;;;;;;;;19.40;58.30;;;;;;5095724;28;19924;-57
2023/08/13 10:54:41;;;;;;;;;;;19.40;58.70;;;;;;5095873;28;19931;-56
2023/08/13 10:57:08;;;;;;;;;;;19.40;57.90;;;;;;5095801;28;19928;-57
2023/08/13 10:59:39;;;;;;;;;;;19.50;57.60;;;;;;5095466;28;19973;-57
2023/08/13 11:02:21;;;;;;;;;;;19.40;58.00;;;;;;5095875;28;20288;-57
2023/08/13 11:04:50;;;;;;;;;;;19.40;58.20;;;;;;5095406;28;19967;-57
2023/08/13 11:07:17;;;;;;;;;;;19.50;57.70;;;;;;5095669;28;19925;-56
2023/08/13 11:09:44;;;;;;;;;;;19.50;57.20;;;;;;5095326;28;19985;-55
2023/08/13 11:12:11;;;;;;;;;;;19.50;57.70;;;;;;5095626;28;19928;-56
2023/08/13 11:14:40;;;;;;;;;;;19.50;57.10;;;;;;5095805;28;19924;-57
2023/08/13 11:17:07;;;;;;;;;;;19.50;57.60;;;;;;5095405;28;19924;-57
2023/08/13 11:19:34;;;;;;;;;;;19.40;57.60;;;;;;5095368;28;20028;-57
2023/08/13 11:22:02;;;;;;;;;;;19.50;57.00;;;;;;5095230;28;19924;-56
2023/08/13 11:24:32;;;;;;;;;;;19.40;57.70;;;;;;5095400;28;19925;-56
2023/08/13 11:26:59;;;;;;;;;;;19.40;58.10;;;;;;5095239;28;19925;-58
2023/08/13 11:29:30;;;;;;;;;;;19.40;57.90;;;;;;5094922;28;20387;-57
2023/08/13 11:31:58;;;;;;;;;;;19.40;57.60;;;;;;5095055;28;19977;-55
2023/08/13 11:34:25;;;;;;;;;;;19.40;57.70;;;;;;5094984;28;19924;-57
2023/08/13 11:36:55;;;;;;;;;;;19.40;58.10;;;;;;5095188;28;19931;-57
2023/08/13 11:39:23;;;;;;;;;;;19.50;58.50;;;;;;5094863;28;19931;-57
2023/08/13 11:41:51;;;;;;;;;;;19.50;57.80;;;;;;5095186;28;20422;-57
2023/08/13 11:44:19;;;;;;;;;;;19.40;56.90;;;;;;5094973;28;20273;-56
2023/08/13 11:47:00;;;;;;;;;;;19.40;57.40;;;;;;5095187;28;19930;-57
2023/08/13 11:49:27;;;;;;;;;;;19.40;57.60;;;;;;5095025;28;20304;-58
2023/08/13 11:51:55;;;;;;;;;;;19.40;57.50;;;;;;5094920;28;20724;-57
2023/08/13 11:54:22;;;;;;;;;;;19.40;58.00;;;;;;5094625;28;19924;-57
2023/08/13 11:56:54;;;;;;;;;;;19.40;57.00;;;;;;5095049;28;19930;-57
2023/08/13 11:59:24;;;;;;;;;;;19.40;57.70;;;;;;5094196;28;19924;-57
2023/08/13 12:01:53;;;;;;;;;;;19.40;57.70;;;;;;5094527;28;19928;-57
2023/08/13 12:04:21;;;;;;;;;;;19.40;57.90;;;;;;5094599;28;19934;-57
2023/08/13 12:06:50;;;;;;;;;;;19.40;57.10;;;;;;5093399;28;19928;-57
2023/08/13 12:09:17;;;;;;;;;;;19.40;58.00;;;;;;5094152;28;20212;-57
2023/08/13 12:11:47;;;;;;;;;;;19.40;58.00;;;;;;5093955;28;19928;-57
2023/08/13 12:14:14;;;;;;;;;;;19.40;57.30;;;;;;5094193;28;19950;-57
2023/08/13 12:16:41;;;;;;;;;;;19.40;57.90;;;;;;5094606;28;19947;-57
2023/08/13 12:19:08;;;;;;;;;;;19.50;58.00;;;;;;5094277;28;19924;-56
2023/08/13 12:21:36;;;;;;;;;;;19.40;57.70;;;;;;5093049;28;19924;-58
2023/08/13 12:24:04;;;;;;;;;;;19.50;58.40;;;;;;5094245;28;19924;-58
2023/08/13 12:26:32;;;;;;;;;;;19.50;58.50;;;;;;5094515;28;19959;-57
2023/08/13 12:28:59;;;;;;;;;;;19.50;58.80;;;;;;5094465;28;20310;-58
2023/08/13 12:31:26;;;;;;;;;;;19.60;58.30;;;;;;5093504;28;19924;-58
2023/08/13 12:33:54;;;;;;;;;;;19.60;58.90;;;;;;5093872;28;19928;-58
2023/08/13 12:36:21;;;;;;;;;;;19.60;58.40;;;;;;5094351;28;19975;-58
2023/08/13 12:38:48;;;;;;;;;;;19.60;57.80;;;;;;5093520;28;19928;-57
2023/08/13 12:41:15;;;;;;;;;;;19.70;57.70;;;;;;5093948;28;19925;-58
2023/08/13 12:43:49;;;;;;;;;;;19.70;58.10;;;;;;5093929;28;19924;-57
2023/08/13 12:46:16;;;;;;;;;;;19.70;57.90;;;;;;5093830;28;19982;-58
2023/08/13 12:48:43;;;;;;;;;;;19.80;58.10;;;;;;5094211;28;19994;-58
2023/08/13 12:51:10;;;;;;;;;;;19.80;57.80;;;;;;5093952;28;20333;-58
2023/08/13 12:53:38;;;;;;;;;;;19.80;58.20;;;;;;5093974;28;19959;-57
2023/08/13 12:56:05;;;;;;;;;;;19.90;57.80;;;;;;5093826;28;20022;-58
2023/08/13 12:58:32;;;;;;;;;;;19.90;57.90;;;;;;5093433;28;19924;-57
2023/08/13 13:01:00;;;;;;;;;;;19.90;58.00;;;;;;5093688;28;19928;-57
2023/08/13 13:03:27;;;;;;;;;;;19.90;57.90;;;;;;5093449;28;19978;-57
2023/08/13 13:05:55;;;;;;;;;;;19.90;58.50;;;;;;5093829;28;19924;-57
2023/08/13 13:08:22;;;;;;;;;;;20.00;57.90;;;;;;5093794;28;19931;-57
2023/08/13 13:10:52;;;;;;;;;;;20.00;58.30;;;;;;5094245;28;19950;-58
2023/08/13 13:13:19;;;;;;;;;;;20.00;58.10;;;;;;5096310;28;19978;-57
2023/08/13 13:15:46;;;;;;;;;;;20.00;57.60;;;;;;5098147;28;19932;-57
2023/08/13 13:18:13;;;;;;;;;;;20.00;58.10;;;;;;5097705;28;20327;-56
2023/08/13 13:20:40;;;;;;;;;;;20.00;56.90;;;;;;5097936;28;19924;-57
2023/08/13 13:23:07;;;;;;;;;;;19.90;57.40;;;;;;5096706;28;19932;-57
2023/08/13 13:25:34;;;;;;;;;;;20.00;58.00;;;;;;5097578;28;19978;-58
2023/08/13 13:28:01;;;;;;;;;;;20.00;57.70;;;;;;5097603;28;19931;-59
2023/08/13 13:30:28;;;;;;;;;;;20.00;56.80;;;;;;5097420;28;20407;-57
2023/08/13 13:32:55;;;;;;;;;;;20.00;57.50;;;;;;5097637;28;20281;-59
2023/08/13 13:35:22;;;;;;;;;;;20.00;57.20;;;;;;5097243;28;20011;-57
2023/08/13 13:37:49;;;;;;;;;;;19.90;57.10;;;;;;5097410;28;19924;-57
2023/08/13 13:40:16;;;;;;;;;;;19.90;56.70;;;;;;5097085;28;19924;-58
2023/08/13 13:42:44;;;;;;;;;;;19.90;57.60;;;;;;5097099;28;20019;-58
2023/08/13 13:45:11;;;;;;;;;;;19.90;57.30;;;;;;5097433;28;19924;-58
2023/08/13 13:47:38;;;;;;;;;;;19.90;57.80;;;;;;5097139;28;19958;-59
2023/08/13 13:50:05;;;;;;;;;;;19.90;57.50;;;;;;5097079;28;19931;-57
2023/08/13 13:52:32;;;;;;;;;;;19.90;58.10;;;;;;5096781;28;19967;-58
2023/08/13 13:55:00;;;;;;;;;;;19.90;57.90;;;;;;5097379;28;19928;-58
2023/08/13 13:57:27;;;;;;;;;;;20.00;57.60;;;;;;5096940;28;19924;-58
2023/08/13 13:59:54;;;;;;;;;;;20.00;57.60;;;;;;5097079;28;20449;-58
2023/08/13 14:02:21;;;;;;;;;;;20.00;58.10;;;;;;5096846;28;19970;-59
2023/08/13 14:04:48;;;;;;;;;;;20.00;59.20;;;;;;5097080;28;20292;-57
2023/08/13 14:07:15;;;;;;;;;;;20.10;67.70;;;;;;5096690;28;19970;-59
2023/08/13 14:09:42;;;;;;;;;;;20.40;71.80;;;;;;5095467;28;19924;-59
2023/08/13 14:12:09;;;;;;;;;;;20.60;73.00;;;;;;5095411;28;20363;-58
2023/08/13 14:14:36;;;;;;;;;;;20.90;73.30;;;;;;5096697;28;20372;-58
2023/08/13 14:17:03;;;;;;;;;;;21.20;73.30;;;;;;5096666;28;20285;-58
2023/08/13 14:19:31;;;;;;;;;;;21.40;72.90;;;;;;5096455;28;19924;-59
2023/08/13 14:21:58;;;;;;;;;;;21.70;72.80;;;;;;5096317;28;19928;-56